Time;durP1;ratioP1;P1;durP2;ratioP2;P2;SDS_P1;SDS_P2;PMS_P1;PMS_P2;Temp;Humidity;BMP_temperature;BMP_pressure;BME280_temperature;BME280_humidity;BME280_pressure;Samples;Min_cycle;Max_cycle;Signal;HPM_P1;HPM_P2
2023/11/24 00:02:06;;;;;;;;;;;;;;;;;;5066883;28;19927;-67
2023/11/24 00:04:32;;;;;;;;;;;;;;;;;;5053289;28;20015;-67
2023/11/24 00:06:58;;;;;;;;;;;;;;;;;;5080617;28;19926;-68
2023/11/24 00:09:27;;;;;;;;;;;;;;;;;;5068071;28;19921;-68
2023/11/24 00:11:52;;;;;;;;;;;;;;;;;;5071829;28;19924;-68
2023/11/24 00:14:18;;;;;;;;;;;;;;;;;;5050082;28;20293;-67
2023/11/24 00:16:44;;;;;;;;;;;;;;;;;;5066903;28;19929;-67
2023/11/24 00:19:12;;;;;;;;;;;;;;;;;;5068585;28;19920;-67
2023/11/24 00:21:39;;;;;;;;;;;;;;;;;;5050987;28;19947;-67
2023/11/24 00:24:05;;;;;;;;;;;;;;;;;;5070643;28;19921;-68
2023/11/24 00:26:31;;;;;;;;;;;;;;;;;;5070677;28;19924;-66
2023/11/24 00:28:57;;;;;;;;;;;;;;;;;;5065889;28;19947;-67
2023/11/24 00:31:26;;;;;;;;;;;;;;;;;;5082571;28;19968;-66
2023/11/24 00:33:52;;;;;;;;;;;;;;;;;;5069232;28;19951;-67
2023/11/24 00:36:18;;;;;;;;;;;;;;;;;;5071050;28;20542;-66
2023/11/24 00:38:43;;;;;;;;;;;;;;;;;;5069790;28;19931;-67
2023/11/24 00:41:13;;;;;;;;;;;;;;;;;;5052603;28;19959;-67
2023/11/24 00:43:38;;;;;;;;;;;;;;;;;;5063628;28;19928;-68
2023/11/24 00:46:05;;;;;;;;;;;;;;;;;;5059312;28;19943;-67
2023/11/24 00:48:31;;;;;;;;;;;;;;;;;;5036614;28;20652;-67
2023/11/24 00:50:57;;;;;;;;;;;;;;;;;;5068314;28;19958;-67
2023/11/24 00:53:23;;;;;;;;;;;;;;;;;;5072013;28;20337;-67
2023/11/24 00:55:49;;;;;;;;;;;;;;;;;;5073145;28;19993;-68
2023/11/24 00:58:15;;;;;;;;;;;;;;;;;;5039482;28;19920;-68
2023/11/24 01:00:41;;;;;;;;;;;;;;;;;;5057351;28;20003;-67
2023/11/24 01:03:08;;;;;;;;;;;;;;;;;;5043508;28;19966;-67
2023/11/24 01:05:34;;;;;;;;;;;;;;;;;;5057115;28;19925;-68
2023/11/24 01:07:59;;;;;;;;;;;;;;;;;;5064457;28;19925;-68
2023/11/24 01:10:25;;;;;;;;;;;;;;;;;;5047671;28;19929;-67
2023/11/24 01:12:51;;;;;;;;;;;;;;;;;;5049732;28;19921;-68
2023/11/24 01:15:17;;;;;;;;;;;;;;;;;;5046703;28;19965;-67
2023/11/24 01:17:44;;;;;;;;;;;;;;;;;;5025006;28;19924;-67
2023/11/24 01:20:10;;;;;;;;;;;;;;;;;;5045618;28;19983;-68
2023/11/24 01:22:36;;;;;;;;;;;;;;;;;;5050253;28;19960;-67
2023/11/24 01:25:02;;;;;;;;;;;;;;;;;;5048414;28;20401;-68
2023/11/24 01:27:28;;;;;;;;;;;;;;;;;;5041344;28;20008;-68
2023/11/24 01:29:54;;;;;;;;;;;;;;;;;;5046211;28;19921;-68
2023/11/24 01:32:20;;;;;;;;;;;;;;;;;;5050193;28;20378;-68
2023/11/24 01:34:46;;;;;;;;;;;;;;;;;;5024034;28;19924;-68
2023/11/24 01:37:11;;;;;;;;;;;;;;;;;;5053006;28;19921;-68
2023/11/24 01:39:37;;;;;;;;;;;;;;;;;;5058182;28;20697;-68
2023/11/24 01:42:04;;;;;;;;;;;;;;;;;;5048185;28;19925;-68
2023/11/24 01:44:30;;;;;;;;;;;;;;;;;;5046234;28;19921;-67
2023/11/24 01:46:56;;;;;;;;;;;;;;;;;;5048916;28;19977;-68
2023/11/24 01:49:22;;;;;;;;;;;;;;;;;;5053259;28;20383;-67
2023/11/24 01:51:48;;;;;;;;;;;;;;;;;;5042091;28;19921;-67
2023/11/24 01:54:14;;;;;;;;;;;;;;;;;;5047602;28;19928;-67
2023/11/24 01:56:39;;;;;;;;;;;;;;;;;;5049720;28;19927;-67
2023/11/24 01:59:05;;;;;;;;;;;;;;;;;;5058136;28;19931;-67
2023/11/24 02:01:31;;;;;;;;;;;;;;;;;;5046053;28;19921;-67
2023/11/24 02:03:57;;;;;;;;;;;;;;;;;;5050120;28;19921;-67
2023/11/24 02:06:23;;;;;;;;;;;;;;;;;;5043841;28;20446;-68
2023/11/24 02:08:49;;;;;;;;;;;;;;;;;;5048910;28;19925;-68
2023/11/24 02:11:15;;;;;;;;;;;;;;;;;;5063165;28;19928;-67
2023/11/24 02:13:41;;;;;;;;;;;;;;;;;;5068103;28;20411;-67
2023/11/24 02:16:07;;;;;;;;;;;;;;;;;;5071838;28;19994;-67
2023/11/24 02:18:33;;;;;;;;;;;;;;;;;;5078023;28;19923;-67
2023/11/24 02:21:00;;;;;;;;;;;;;;;;;;5049985;28;20032;-67
2023/11/24 02:23:27;;;;;;;;;;;;;;;;;;5080220;28;19931;-68
2023/11/24 02:25:53;;;;;;;;;;;;;;;;;;5064505;28;20293;-68
2023/11/24 02:28:19;;;;;;;;;;;;;;;;;;5072976;28;20007;-68
2023/11/24 02:30:45;;;;;;;;;;;;;;;;;;5072360;28;19931;-68
2023/11/24 02:33:10;;;;;;;;;;;;;;;;;;5056034;28;19959;-67
2023/11/24 02:35:39;;;;;;;;;;;;;;;;;;5063876;28;19978;-68
2023/11/24 02:38:05;;;;;;;;;;;;;;;;;;5070456;28;20282;-68
2023/11/24 02:40:32;;;;;;;;;;;;;;;;;;5071484;28;19928;-68
2023/11/24 02:42:59;;;;;;;;;;;;;;;;;;5069042;28;20003;-68
2023/11/24 02:45:25;;;;;;;;;;;;;;;;;;5068203;28;19929;-68
2023/11/24 02:47:51;;;;;;;;;;;;;;;;;;5082384;28;19924;-66
2023/11/24 02:50:17;;;;;;;;;;;;;;;;;;5072450;28;19960;-67
2023/11/24 02:52:44;;;;;;;;;;;;;;;;;;5052441;28;19946;-67
2023/11/24 02:55:11;;;;;;;;;;;;;;;;;;5068960;28;20012;-67
2023/11/24 02:57:37;;;;;;;;;;;;;;;;;;5075728;28;19978;-67
2023/11/24 03:00:05;;;;;;;;;;;;;;;;;;5072556;28;19928;-67
2023/11/24 03:02:31;;;;;;;;;;;;;;;;;;5078360;28;20297;-67
2023/11/24 03:04:56;;;;;;;;;;;;;;;;;;5072998;28;19924;-67
2023/11/24 03:07:24;;;;;;;;;;;;;;;;;;5077253;28;19970;-67
2023/11/24 03:09:50;;;;;;;;;;;;;;;;;;5066110;28;19931;-67
2023/11/24 03:12:16;;;;;;;;;;;;;;;;;;5073249;28;19925;-67
2023/11/24 03:14:42;;;;;;;;;;;;;;;;;;5070566;28;20447;-67
2023/11/24 03:17:08;;;;;;;;;;;;;;;;;;5057075;28;19924;-68
2023/11/24 03:19:34;;;;;;;;;;;;;;;;;;5079205;28;19920;-67
2023/11/24 03:22:00;;;;;;;;;;;;;;;;;;5059956;28;19924;-68
2023/11/24 03:24:26;;;;;;;;;;;;;;;;;;5050299;28;19925;-68
2023/11/24 03:26:52;;;;;;;;;;;;;;;;;;5073502;28;19920;-66
2023/11/24 03:29:18;;;;;;;;;;;;;;;;;;5053705;28;20303;-67
2023/11/24 03:31:44;;;;;;;;;;;;;;;;;;5069512;28;19969;-66
2023/11/24 03:34:10;;;;;;;;;;;;;;;;;;5070760;28;19978;-67
2023/11/24 03:36:36;;;;;;;;;;;;;;;;;;5073365;28;20384;-66
2023/11/24 03:39:02;;;;;;;;;;;;;;;;;;5070432;28;19928;-67
2023/11/24 03:41:28;;;;;;;;;;;;;;;;;;5071742;28;19927;-68
2023/11/24 03:43:54;;;;;;;;;;;;;;;;;;5069802;28;19935;-67
2023/11/24 03:46:20;;;;;;;;;;;;;;;;;;5050517;28;19920;-68
2023/11/24 03:48:46;;;;;;;;;;;;;;;;;;5067920;28;20058;-66
2023/11/24 03:51:12;;;;;;;;;;;;;;;;;;5056050;28;20006;-67
2023/11/24 03:53:38;;;;;;;;;;;;;;;;;;5087480;28;19932;-68
2023/11/24 03:56:06;;;;;;;;;;;;;;;;;;5066974;28;19983;-67
2023/11/24 03:58:32;;;;;;;;;;;;;;;;;;5088013;28;20035;-67
2023/11/24 04:00:58;;;;;;;;;;;;;;;;;;5067463;28;20059;-67
2023/11/24 04:03:24;;;;;;;;;;;;;;;;;;5052334;28;20370;-67
2023/11/24 04:05:50;;;;;;;;;;;;;;;;;;5026161;28;20027;-67
2023/11/24 04:08:16;;;;;;;;;;;;;;;;;;5073707;28;19932;-67
2023/11/24 04:10:42;;;;;;;;;;;;;;;;;;5067977;28;19951;-67
2023/11/24 04:13:08;;;;;;;;;;;;;;;;;;5072561;28;19927;-66
2023/11/24 04:15:34;;;;;;;;;;;;;;;;;;5070302;28;19925;-66
2023/11/24 04:18:00;;;;;;;;;;;;;;;;;;5053025;28;19924;-67
2023/11/24 04:20:26;;;;;;;;;;;;;;;;;;5071750;28;19946;-67
2023/11/24 04:22:52;;;;;;;;;;;;;;;;;;5073244;28;19921;-67
2023/11/24 04:25:18;;;;;;;;;;;;;;;;;;5070285;28;20343;-67
2023/11/24 04:27:44;;;;;;;;;;;;;;;;;;5068870;28;19974;-67
2023/11/24 04:30:10;;;;;;;;;;;;;;;;;;5069633;28;19924;-66
2023/11/24 04:32:36;;;;;;;;;;;;;;;;;;5067251;28;19920;-67
2023/11/24 04:35:02;;;;;;;;;;;;;;;;;;5070230;28;20031;-66
2023/11/24 04:37:28;;;;;;;;;;;;;;;;;;5070608;28;20289;-66
2023/11/24 04:39:55;;;;;;;;;;;;;;;;;;5070211;28;19974;-67
2023/11/24 04:42:21;;;;;;;;;;;;;;;;;;5044970;28;19944;-67
2023/11/24 04:44:47;;;;;;;;;;;;;;;;;;5065635;28;20239;-68
2023/11/24 04:47:13;;;;;;;;;;;;;;;;;;5066348;28;19925;-67
2023/11/24 04:49:39;;;;;;;;;;;;;;;;;;5070202;28;19925;-67
2023/11/24 04:52:05;;;;;;;;;;;;;;;;;;5086025;28;19927;-68
2023/11/24 04:54:31;;;;;;;;;;;;;;;;;;5068890;28;19931;-67
2023/11/24 04:56:57;;;;;;;;;;;;;;;;;;5070992;28;20405;-68
2023/11/24 04:59:26;;;;;;;;;;;;;;;;;;5076200;28;19928;-68
2023/11/24 05:01:52;;;;;;;;;;;;;;;;;;5077720;28;20478;-68
2023/11/24 05:04:18;;;;;;;;;;;;;;;;;;5073967;28;19928;-68
2023/11/24 05:06:44;;;;;;;;;;;;;;;;;;5073603;28;19925;-68
2023/11/24 05:09:11;;;;;;;;;;;;;;;;;;5069246;28;20285;-68
2023/11/24 05:11:38;;;;;;;;;;;;;;;;;;5069873;28;20081;-68
2023/11/24 05:14:04;;;;;;;;;;;;;;;;;;5066043;28;20293;-68
2023/11/24 05:16:31;;;;;;;;;;;;;;;;;;5071965;28;19935;-68
2023/11/24 05:18:57;;;;;;;;;;;;;;;;;;5056852;28;19920;-68
2023/11/24 05:21:23;;;;;;;;;;;;;;;;;;5083472;28;20346;-68
2023/11/24 05:23:49;;;;;;;;;;;;;;;;;;5069156;28;20548;-67
2023/11/24 05:26:15;;;;;;;;;;;;;;;;;;5085351;28;19924;-68
2023/11/24 05:28:40;;;;;;;;;;;;;;;;;;5046579;28;19928;-67
2023/11/24 05:31:07;;;;;;;;;;;;;;;;;;5066356;28;19920;-66
2023/11/24 05:33:33;;;;;;;;;;;;;;;;;;5081509;28;19936;-67
2023/11/24 05:35:59;;;;;;;;;;;;;;;;;;5075323;28;19921;-67
2023/11/24 05:38:24;;;;;;;;;;;;;;;;;;5087459;28;19925;-67
2023/11/24 05:40:50;;;;;;;;;;;;;;;;;;5074752;28;19928;-68
2023/11/24 05:43:16;;;;;;;;;;;;;;;;;;5054736;28;19967;-67
2023/11/24 05:45:42;;;;;;;;;;;;;;;;;;5065298;28;19959;-67
2023/11/24 05:48:08;;;;;;;;;;;;;;;;;;5041795;28;20011;-67
2023/11/24 05:50:34;;;;;;;;;;;;;;;;;;5072448;28;20006;-67
2023/11/24 05:53:00;;;;;;;;;;;;;;;;;;5086902;28;19931;-67
2023/11/24 05:55:26;;;;;;;;;;;;;;;;;;5073331;28;19925;-67
2023/11/24 05:57:52;;;;;;;;;;;;;;;;;;5057907;28;20355;-68
2023/11/24 06:00:18;;;;;;;;;;;;;;;;;;5085258;28;19921;-67
2023/11/24 06:02:44;;;;;;;;;;;;;;;;;;5075501;28;19931;-67
2023/11/24 06:05:11;;;;;;;;;;;;;;;;;;5055028;28;20356;-67
2023/11/24 06:07:37;;;;;;;;;;;;;;;;;;5071747;28;20028;-66
2023/11/24 06:10:03;;;;;;;;;;;;;;;;;;5073160;28;20015;-67
2023/11/24 06:12:31;;;;;;;;;;;;;;;;;;5081215;28;20447;-67
2023/11/24 06:14:57;;;;;;;;;;;;;;;;;;5068497;28;19936;-67
2023/11/24 06:17:23;;;;;;;;;;;;;;;;;;5053296;28;20312;-67
2023/11/24 06:19:49;;;;;;;;;;;;;;;;;;5075060;28;19931;-67
2023/11/24 06:22:14;;;;;;;;;;;;;;;;;;5080480;28;19920;-67
2023/11/24 06:24:41;;;;;;;;;;;;;;;;;;5113315;22;20388;-70
2023/11/24 06:27:07;;;;;;;;;;;;;;;;;;5094994;28;20304;-70
2023/11/24 06:29:34;;;;;;;;;;;;;;;;;;5095034;28;19920;-70
2023/11/24 06:32:00;;;;;;;;;;;;;;;;;;5094080;28;19920;-70
2023/11/24 06:34:26;;;;;;;;;;;;;;;;;;5086069;28;19924;-70
2023/11/24 06:36:52;;;;;;;;;;;;;;;;;;5084469;28;20425;-70
2023/11/24 06:39:19;;;;;;;;;;;;;;;;;;5093011;28;20007;-70
2023/11/24 06:41:45;;;;;;;;;;;;;;;;;;5095740;28;19924;-70
2023/11/24 06:44:11;;;;;;;;;;;;;;;;;;5084692;28;19931;-72
2023/11/24 06:46:37;;;;;;;;;;;;;;;;;;5085059;28;19928;-72
2023/11/24 06:49:05;;;;;;;;;;;;;;;;;;5086163;28;19924;-72
2023/11/24 06:51:32;;;;;;;;;;;;;;;;;;5081453;28;19931;-72
2023/11/24 06:53:57;;;;;;;;;;;;;;;;;;5088802;28;20432;-72
2023/11/24 06:56:25;;;;;;;;;;;;;;;;;;5088796;28;19931;-72
2023/11/24 06:58:54;;;;;;;;;;;;;;;;;;5085321;28;19972;-72
2023/11/24 07:01:20;;;;;;;;;;;;;;;;;;5081220;28;20027;-72
2023/11/24 07:03:46;;;;;;;;;;;;;;;;;;5081133;28;20105;-72
2023/11/24 07:06:13;;;;;;;;;;;;;;;;;;5091300;28;20266;-71
2023/11/24 07:08:39;;;;;;;;;;;;;;;;;;5084535;28;19924;-72
2023/11/24 07:11:05;;;;;;;;;;;;;;;;;;5089485;28;20357;-72
2023/11/24 07:13:31;;;;;;;;;;;;;;;;;;5090812;28;19920;-71
2023/11/24 07:15:57;;;;;;;;;;;;;;;;;;5084410;28;19924;-72
2023/11/24 07:18:23;;;;;;;;;;;;;;;;;;5087062;28;19924;-72
2023/11/24 07:20:49;;;;;;;;;;;;;;;;;;5091686;28;19927;-72
2023/11/24 07:23:15;;;;;;;;;;;;;;;;;;5091290;28;19928;-72
2023/11/24 07:25:42;;;;;;;;;;;;;;;;;;5090861;28;19920;-71
2023/11/24 07:28:09;;;;;;;;;;;;;;;;;;5089456;28;20377;-72
2023/11/24 07:30:35;;;;;;;;;;;;;;;;;;5084072;28;20328;-72
2023/11/24 07:33:00;;;;;;;;;;;;;;;;;;5086110;28;19926;-72
2023/11/24 07:35:27;;;;;;;;;;;;;;;;;;5085416;28;19939;-72
2023/11/24 07:37:53;;;;;;;;;;;;;;;;;;5089560;28;19928;-71
2023/11/24 07:40:19;;;;;;;;;;;;;;;;;;5086723;28;19996;-71
2023/11/24 07:42:46;;;;;;;;;;;;;;;;;;5071146;28;19931;-72
2023/11/24 07:45:12;;;;;;;;;;;;;;;;;;5088284;28;19924;-71
2023/11/24 07:47:39;;;;;;;;;;;;;;;;;;5097740;28;19928;-71
2023/11/24 07:50:05;;;;;;;;;;;;;;;;;;5092107;28;20389;-71
2023/11/24 07:52:31;;;;;;;;;;;;;;;;;;5096913;28;19962;-72
2023/11/24 07:54:57;;;;;;;;;;;;;;;;;;5094839;28;20246;-72
2023/11/24 07:57:26;;;;;;;;;;;;;;;;;;5097705;28;20331;-72
2023/11/24 07:59:52;;;;;;;;;;;;;;;;;;5088472;28;19920;-72
2023/11/24 08:02:18;;;;;;;;;;;;;;;;;;5082994;28;19920;-72
2023/11/24 08:04:45;;;;;;;;;;;;;;;;;;5087885;28;20050;-72
2023/11/24 08:07:10;;;;;;;;;;;;;;;;;;5094600;28;19928;-72
2023/11/24 08:09:36;;;;;;;;;;;;;;;;;;5086970;28;20380;-72
2023/11/24 08:12:04;;;;;;;;;;;;;;;;;;5090479;28;20304;-72
2023/11/24 08:14:30;;;;;;;;;;;;;;;;;;5091960;28;19920;-71
2023/11/24 08:16:56;;;;;;;;;;;;;;;;;;5090633;28;19931;-72
2023/11/24 08:19:25;;;;;;;;;;;;;;;;;;5085196;28;20269;-72
2023/11/24 08:21:51;;;;;;;;;;;;;;;;;;5090205;28;19951;-72
2023/11/24 08:24:17;;;;;;;;;;;;;;;;;;5098277;28;19920;-71
2023/11/24 08:26:43;;;;;;;;;;;;;;;;;;5095367;28;19978;-71
2023/11/24 08:29:09;;;;;;;;;;;;;;;;;;5090778;28;19928;-72
2023/11/24 08:31:35;;;;;;;;;;;;;;;;;;5094233;28;19927;-72
2023/11/24 08:34:01;;;;;;;;;;;;;;;;;;5092187;28;19973;-72
2023/11/24 08:36:27;;;;;;;;;;;;;;;;;;5092487;28;19935;-72
2023/11/24 08:38:52;;;;;;;;;;;;;;;;;;5090939;28;20270;-72
2023/11/24 08:41:18;;;;;;;;;;;;;;;;;;5085549;28;19920;-72
2023/11/24 08:43:44;;;;;;;;;;;;;;;;;;5090354;28;19924;-71
2023/11/24 08:46:10;;;;;;;;;;;;;;;;;;5086764;28;19924;-72
2023/11/24 08:48:36;;;;;;;;;;;;;;;;;;5070745;28;19943;-72
2023/11/24 08:51:02;;;;;;;;;;;;;;;;;;5085446;28;19920;-72
2023/11/24 08:53:28;;;;;;;;;;;;;;;;;;5089641;28;19920;-72
2023/11/24 08:55:54;;;;;;;;;;;;;;;;;;5087431;28;19928;-70
2023/11/24 08:58:20;;;;;;;;;;;;;;;;;;5087128;28;19955;-72
2023/11/24 09:00:46;;;;;;;;;;;;;;;;;;5094363;28;19927;-72
2023/11/24 09:03:12;;;;;;;;;;;;;;;;;;5081256;28;19920;-72
2023/11/24 09:05:38;;;;;;;;;;;;;;;;;;5091894;28;19931;-72
2023/11/24 09:08:05;;;;;;;;;;;;;;;;;;5079696;28;20289;-72
2023/11/24 09:10:32;;;;;;;;;;;;;;;;;;5082207;28;19931;-72
2023/11/24 09:12:58;;;;;;;;;;;;;;;;;;5086886;28;19940;-72
2023/11/24 09:15:24;;;;;;;;;;;;;;;;;;5089369;28;20277;-73
2023/11/24 09:17:50;;;;;;;;;;;;;;;;;;5085187;28;19939;-72
2023/11/24 09:20:18;;;;;;;;;;;;;;;;;;5085597;28;19946;-72
2023/11/24 09:22:44;;;;;;;;;;;;;;;;;;5088618;28;20437;-72
2023/11/24 09:25:11;;;;;;;;;;;;;;;;;;5078160;28;19924;-72
2023/11/24 09:27:38;;;;;;;;;;;;;;;;;;5086310;28;19977;-72
2023/11/24 09:30:04;;;;;;;;;;;;;;;;;;5091022;28;19928;-72
2023/11/24 09:32:31;;;;;;;;;;;;;;;;;;5086871;28;19924;-72
2023/11/24 09:34:57;;;;;;;;;;;;;;;;;;5086498;28;20065;-72
2023/11/24 09:37:26;;;;;;;;;;;;;;;;;;5089216;28;20877;-72
2023/11/24 09:39:52;;;;;;;;;;;;;;;;;;5082195;28;19924;-72
2023/11/24 09:42:18;;;;;;;;;;;;;;;;;;5085879;28;19927;-72
2023/11/24 09:44:44;;;;;;;;;;;;;;;;;;5087652;28;19924;-72
2023/11/24 09:47:10;;;;;;;;;;;;;;;;;;5085620;28;20347;-72
2023/11/24 09:49:36;;;;;;;;;;;;;;;;;;5089482;28;19920;-72
2023/11/24 09:52:02;;;;;;;;;;;;;;;;;;5080703;28;19920;-73
2023/11/24 09:54:28;;;;;;;;;;;;;;;;;;5089777;28;19924;-73
2023/11/24 09:56:54;;;;;;;;;;;;;;;;;;5080535;28;19924;-72
2023/11/24 09:59:20;;;;;;;;;;;;;;;;;;5086032;28;19927;-72
2023/11/24 10:01:46;;;;;;;;;;;;;;;;;;5089257;28;19924;-72
2023/11/24 10:04:12;;;;;;;;;;;;;;;;;;5090072;28;19951;-71
2023/11/24 10:06:39;;;;;;;;;;;;;;;;;;5084365;28;19920;-71
2023/11/24 10:09:10;;;;;;;;;;;;;;;;;;5081484;28;19924;-72
2023/11/24 10:11:38;;;;;;;;;;;;;;;;;;5098558;28;19972;-71
2023/11/24 10:14:04;;;;;;;;;;;;;;;;;;5097326;28;19928;-72
2023/11/24 10:16:30;;;;;;;;;;;;;;;;;;5093672;28;20304;-72
2023/11/24 10:18:56;;;;;;;;;;;;;;;;;;5091455;28;19920;-72
2023/11/24 10:21:22;;;;;;;;;;;;;;;;;;5092046;28;19927;-72
2023/11/24 10:23:51;;;;;;;;;;;;;;;;;;5073179;28;19931;-72
2023/11/24 10:26:17;;;;;;;;;;;;;;;;;;5021245;28;1757187;-72
2023/11/24 10:28:44;;;;;;;;;;;;;;;;;;5091346;28;19920;-71
2023/11/24 10:31:12;;;;;;;;;;;;;;;;;;5086527;28;20327;-72
2023/11/24 10:33:38;;;;;;;;;;;;;;;;;;5080775;28;19975;-72
2023/11/24 10:36:03;;;;;;;;;;;;;;;;;;5080795;28;20347;-72
2023/11/24 10:38:33;;;;;;;;;;;;;;;;;;5084565;28;19926;-71
2023/11/24 10:40:59;;;;;;;;;;;;;;;;;;5083605;28;20521;-72
2023/11/24 10:43:25;;;;;;;;;;;;;;;;;;5087393;28;19935;-72
2023/11/24 10:45:55;;;;;;;;;;;;;;;;;;5090506;28;20439;-72
2023/11/24 10:48:24;;;;;;;;;;;;;;;;;;5090830;28;19924;-71
2023/11/24 10:50:51;;;;;;;;;;;;;;;;;;5088349;28;19927;-72
2023/11/24 10:53:17;;;;;;;;;;;;;;;;;;5087484;28;19931;-72
2023/11/24 10:55:43;;;;;;;;;;;;;;;;;;5083607;28;19924;-72
2023/11/24 10:58:09;;;;;;;;;;;;;;;;;;5090320;28;19927;-72
2023/11/24 11:00:37;;;;;;;;;;;;;;;;;;5072782;28;19976;-71
2023/11/24 11:03:03;;;;;;;;;;;;;;;;;;5083768;28;20300;-72
2023/11/24 11:05:33;;;;;;;;;;;;;;;;;;5083821;28;19924;-71
2023/11/24 11:07:59;;;;;;;;;;;;;;;;;;5092659;28;20387;-72
2023/11/24 11:10:26;;;;;;;;;;;;;;;;;;5087330;28;19928;-72
2023/11/24 11:12:53;;;;;;;;;;;;;;;;;;5097531;28;20269;-72
2023/11/24 11:15:19;;;;;;;;;;;;;;;;;;5094665;28;19940;-72
2023/11/24 11:17:47;;;;;;;;;;;;;;;;;;5066945;28;19928;-72
2023/11/24 11:20:15;;;;;;;;;;;;;;;;;;5099159;28;19920;-72
2023/11/24 11:22:42;;;;;;;;;;;;;;;;;;5083019;28;19955;-72
2023/11/24 11:25:08;;;;;;;;;;;;;;;;;;5086116;28;20472;-72
2023/11/24 11:27:36;;;;;;;;;;;;;;;;;;5092298;28;19920;-71
2023/11/24 11:30:03;;;;;;;;;;;;;;;;;;5093898;28;20362;-72
2023/11/24 11:32:29;;;;;;;;;;;;;;;;;;5085705;28;19924;-71
2023/11/24 11:34:55;;;;;;;;;;;;;;;;;;5086735;28;20096;-72
2023/11/24 11:37:22;;;;;;;;;;;;;;;;;;5094536;28;20370;-72
2023/11/24 11:39:57;;;;;;;;;;;;;;;;;;5068000;28;20273;-72
2023/11/24 11:42:23;;;;;;;;;;;;;;;;;;5089770;28;20008;-72
2023/11/24 11:44:49;;;;;;;;;;;;;;;;;;5089566;28;20366;-72
2023/11/24 11:47:19;;;;;;;;;;;;;;;;;;5088702;28;19932;-72
2023/11/24 11:49:45;;;;;;;;;;;;;;;;;;5088938;28;19976;-72
2023/11/24 11:52:11;;;;;;;;;;;;;;;;;;5090978;28;20007;-72
2023/11/24 11:54:37;;;;;;;;;;;;;;;;;;5067862;28;20619;-72
2023/11/24 11:57:03;;;;;;;;;;;;;;;;;;5085495;28;20018;-72
2023/11/24 11:59:29;;;;;;;;;;;;;;;;;;5105564;28;19946;-72
2023/11/24 12:01:55;;;;;;;;;;;;;;;;;;5099809;28;19923;-72
2023/11/24 12:04:21;;;;;;;;;;;;;;;;;;5110491;28;20371;-71
2023/11/24 12:06:51;;;;;;;;;;;;;;;;;;5092940;28;20012;-72
2023/11/24 12:09:17;;;;;;;;;;;;;;;;;;5086625;28;20302;-72
2023/11/24 12:11:43;;;;;;;;;;;;;;;;;;5079995;28;19931;-72
2023/11/24 12:14:09;;;;;;;;;;;;;;;;;;5088931;28;19935;-72
2023/11/24 12:16:34;;;;;;;;;;;;;;;;;;5082028;28;19973;-72
2023/11/24 12:19:04;;;;;;;;;;;;;;;;;;5086507;28;19942;-72
2023/11/24 12:21:30;;;;;;;;;;;;;;;;;;5085140;28;20345;-72
2023/11/24 12:23:56;;;;;;;;;;;;;;;;;;5087267;28;19973;-71
2023/11/24 12:26:22;;;;;;;;;;;;;;;;;;5088881;28;19980;-71
2023/11/24 12:28:47;;;;;;;;;;;;;;;;;;5081297;28;19928;-71
2023/11/24 12:31:13;;;;;;;;;;;;;;;;;;5088093;28;20405;-71
2023/11/24 12:33:39;;;;;;;;;;;;;;;;;;5086546;28;19928;-71
2023/11/24 12:36:05;;;;;;;;;;;;;;;;;;5081941;28;19986;-71
2023/11/24 12:38:31;;;;;;;;;;;;;;;;;;5061408;28;19998;-71
2023/11/24 12:40:57;;;;;;;;;;;;;;;;;;5088170;28;21414;-70
2023/11/24 12:43:23;;;;;;;;;;;;;;;;;;5090059;28;20019;-71
2023/11/24 12:45:51;;;;;;;;;;;;;;;;;;5084783;28;20007;-71
2023/11/24 12:48:17;;;;;;;;;;;;;;;;;;5082481;28;20019;-71
2023/11/24 12:50:43;;;;;;;;;;;;;;;;;;5090568;28;20285;-71
2023/11/24 12:53:09;;;;;;;;;;;;;;;;;;5081792;28;19924;-71
2023/11/24 12:55:35;;;;;;;;;;;;;;;;;;5088859;28;19928;-71
2023/11/24 12:58:01;;;;;;;;;;;;;;;;;;5091866;28;19924;-70
2023/11/24 13:00:28;;;;;;;;;;;;;;;;;;5086017;28;19929;-71
2023/11/24 13:02:55;;;;;;;;;;;;;;;;;;5091241;28;20003;-71
2023/11/24 13:05:22;;;;;;;;;;;;;;;;;;5090867;28;19962;-71
2023/11/24 13:07:48;;;;;;;;;;;;;;;;;;5083441;28;19931;-71
2023/11/24 13:10:15;;;;;;;;;;;;;;;;;;5090508;28;19924;-71
2023/11/24 13:12:41;;;;;;;;;;;;;;;;;;5086846;28;19949;-71
2023/11/24 13:15:07;;;;;;;;;;;;;;;;;;5090350;28;19989;-70
2023/11/24 13:17:33;;;;;;;;;;;;;;;;;;5087095;28;19928;-70
2023/11/24 13:20:06;;;;;;;;;;;;;;;;;;5088297;28;20053;-70
2023/11/24 13:22:33;;;;;;;;;;;;;;;;;;5084399;28;19924;-71
2023/11/24 13:24:59;;;;;;;;;;;;;;;;;;5086218;28;19932;-70
2023/11/24 13:27:25;;;;;;;;;;;;;;;;;;5089776;28;19928;-70
2023/11/24 13:29:51;;;;;;;;;;;;;;;;;;5085472;28;19920;-70
2023/11/24 13:32:17;;;;;;;;;;;;;;;;;;5080328;28;20357;-71
2023/11/24 13:34:43;;;;;;;;;;;;;;;;;;5086875;28;20472;-70
2023/11/24 13:37:11;;;;;;;;;;;;;;;;;;5083648;28;20011;-70
2023/11/24 13:39:37;;;;;;;;;;;;;;;;;;5085619;28;20400;-70
2023/11/24 13:42:03;;;;;;;;;;;;;;;;;;5088179;28;19920;-70
2023/11/24 13:44:29;;;;;;;;;;;;;;;;;;5088566;28;19920;-70
2023/11/24 13:46:56;;;;;;;;;;;;;;;;;;5086276;28;19928;-71
2023/11/24 13:49:22;;;;;;;;;;;;;;;;;;5087123;28;19920;-70
2023/11/24 13:51:48;;;;;;;;;;;;;;;;;;5089725;28;20348;-70
2023/11/24 13:54:15;;;;;;;;;;;;;;;;;;5068793;28;19957;-70
2023/11/24 13:56:41;;;;;;;;;;;;;;;;;;5087190;28;20460;-70
2023/11/24 13:59:07;;;;;;;;;;;;;;;;;;5087047;28;19924;-70
2023/11/24 14:01:33;;;;;;;;;;;;;;;;;;5086230;28;20376;-70
2023/11/24 14:03:59;;;;;;;;;;;;;;;;;;5087203;28;20062;-70
2023/11/24 14:06:26;;;;;;;;;;;;;;;;;;5082277;28;20026;-71
2023/11/24 14:08:52;;;;;;;;;;;;;;;;;;5085459;28;19920;-69
2023/11/24 14:11:18;;;;;;;;;;;;;;;;;;5088991;28;19920;-69
2023/11/24 14:13:45;;;;;;;;;;;;;;;;;;5087145;28;19990;-69
2023/11/24 14:16:10;;;;;;;;;;;;;;;;;;5087289;28;19925;-68
2023/11/24 14:18:36;;;;;;;;;;;;;;;;;;5074941;28;19920;-69
2023/11/24 14:21:04;;;;;;;;;;;;;;;;;;5094935;28;20353;-69
2023/11/24 14:23:31;;;;;;;;;;;;;;;;;;5090010;28;19959;-68
2023/11/24 14:25:57;;;;;;;;;;;;;;;;;;5093614;28;19924;-68
2023/11/24 14:28:23;;;;;;;;;;;;;;;;;;5094724;28;20364;-69
2023/11/24 14:30:51;;;;;;;;;;;;;;;;;;5093842;28;20007;-68
2023/11/24 14:33:17;;;;;;;;;;;;;;;;;;5092970;28;20023;-68
2023/11/24 14:35:43;;;;;;;;;;;;;;;;;;5091800;28;20401;-69
2023/11/24 14:38:08;;;;;;;;;;;;;;;;;;5091379;28;20019;-69
2023/11/24 14:40:34;;;;;;;;;;;;;;;;;;5094322;28;19994;-69
2023/11/24 14:43:00;;;;;;;;;;;;;;;;;;5085837;28;19921;-69
2023/11/24 14:45:26;;;;;;;;;;;;;;;;;;5088152;28;20373;-69
2023/11/24 14:47:54;;;;;;;;;;;;;;;;;;5075727;28;20525;-69
2023/11/24 14:50:25;;;;;;;;;;;;;;;;;;5089604;28;19925;-69
2023/11/24 14:52:51;;;;;;;;;;;;;;;;;;5082160;28;19927;-69
2023/11/24 14:55:17;;;;;;;;;;;;;;;;;;5092541;28;19931;-69
2023/11/24 14:57:45;;;;;;;;;;;;;;;;;;5085944;28;20117;-69
2023/11/24 15:00:24;;;;;;;;;;;;;;;;;;5087850;28;20015;-69
2023/11/24 15:02:49;;;;;;;;;;;;;;;;;;5090136;28;19931;-69
2023/11/24 15:05:17;;;;;;;;;;;;;;;;;;5085057;28;19948;-69
2023/11/24 15:07:43;;;;;;;;;;;;;;;;;;5088694;28;19931;-69
2023/11/24 15:10:09;;;;;;;;;;;;;;;;;;5086961;28;19955;-69
2023/11/24 15:12:39;;;;;;;;;;;;;;;;;;5093170;28;20385;-69
2023/11/24 15:15:06;;;;;;;;;;;;;;;;;;5090678;28;19928;-69
2023/11/24 15:17:35;;;;;;;;;;;;;;;;;;5077112;28;19973;-69
2023/11/24 15:20:04;;;;;;;;;;;;;;;;;;5091231;28;19928;-70
2023/11/24 15:22:30;;;;;;;;;;;;;;;;;;5068256;28;19950;-70
2023/11/24 15:24:58;;;;;;;;;;;;;;;;;;5083332;28;20425;-69
2023/11/24 15:27:24;;;;;;;;;;;;;;;;;;5084841;28;19927;-69
2023/11/24 15:29:51;;;;;;;;;;;;;;;;;;5088108;28;20383;-70
2023/11/24 15:32:20;;;;;;;;;;;;;;;;;;5085001;28;20011;-70
2023/11/24 15:34:46;;;;;;;;;;;;;;;;;;5085156;28;19935;-69
2023/11/24 15:37:12;;;;;;;;;;;;;;;;;;5086288;28;19928;-70
2023/11/24 15:39:42;;;;;;;;;;;;;;;;;;5090486;28;19920;-70
2023/11/24 15:42:08;;;;;;;;;;;;;;;;;;5090573;28;19923;-69
2023/11/24 15:44:34;;;;;;;;;;;;;;;;;;5089238;28;20380;-69
2023/11/24 15:47:05;;;;;;;;;;;;;;;;;;5089369;28;19920;-70
2023/11/24 15:49:34;;;;;;;;;;;;;;;;;;5088106;28;19931;-69
2023/11/24 15:52:02;;;;;;;;;;;;;;;;;;5090504;28;19928;-70
2023/11/24 15:54:29;;;;;;;;;;;;;;;;;;5087769;28;19932;-70
2023/11/24 15:56:55;;;;;;;;;;;;;;;;;;5090267;28;20049;-69
2023/11/24 15:59:24;;;;;;;;;;;;;;;;;;5067366;28;19921;-70
2023/11/24 16:01:51;;;;;;;;;;;;;;;;;;5092374;28;20406;-70
2023/11/24 16:04:17;;;;;;;;;;;;;;;;;;5078924;28;20053;-70
2023/11/24 16:06:44;;;;;;;;;;;;;;;;;;5087017;28;20003;-70
2023/11/24 16:09:12;;;;;;;;;;;;;;;;;;5085695;28;19920;-70
2023/11/24 16:11:44;;;;;;;;;;;;;;;;;;5081325;28;19925;-71
2023/11/24 16:14:10;;;;;;;;;;;;;;;;;;5085121;28;19927;-71
2023/11/24 16:16:42;;;;;;;;;;;;;;;;;;5082440;28;19920;-71
2023/11/24 16:19:08;;;;;;;;;;;;;;;;;;5073277;28;19924;-70
2023/11/24 16:21:34;;;;;;;;;;;;;;;;;;5103827;28;20372;-71
2023/11/24 16:24:00;;;;;;;;;;;;;;;;;;5083923;28;19926;-71
2023/11/24 16:26:26;;;;;;;;;;;;;;;;;;5088911;28;19929;-70
2023/11/24 16:28:52;;;;;;;;;;;;;;;;;;5092480;28;19927;-71
2023/11/24 16:31:18;;;;;;;;;;;;;;;;;;5086960;28;20422;-70
2023/11/24 16:33:44;;;;;;;;;;;;;;;;;;5092481;28;19920;-70
2023/11/24 16:36:11;;;;;;;;;;;;;;;;;;5088074;28;19928;-71
2023/11/24 16:38:37;;;;;;;;;;;;;;;;;;5091898;28;19927;-70
2023/11/24 16:41:03;;;;;;;;;;;;;;;;;;5091134;28;20464;-70